sensor_id;sensor_type;location;lat;lon;timestamp;pressure;altitude;pressure_sealevel;temperature
70533;BMP180;58088;51.186;17.130;2022-10-19T00:01:22;101103.60;;;15.64
70533;BMP180;58088;51.186;17.130;2022-10-19T00:03:53;101113.20;;;15.60
70533;BMP180;58088;51.186;17.130;2022-10-19T00:06:23;101114.60;;;15.50
70533;BMP180;58088;51.186;17.130;2022-10-19T00:09:06;101111.40;;;15.50
70533;BMP180;58088;51.186;17.130;2022-10-19T00:11:37;101113.80;;;15.44
70533;BMP180;58088;51.186;17.130;2022-10-19T00:14:04;101113.40;;;15.40
70533;BMP180;58088;51.186;17.130;2022-10-19T00:16:36;101104.80;;;15.38
70533;BMP180;58088;51.186;17.130;2022-10-19T00:19:07;101107.40;;;15.28
70533;BMP180;58088;51.186;17.130;2022-10-19T00:21:34;101106.20;;;15.20
70533;BMP180;58088;51.186;17.130;2022-10-19T00:24:00;101111.00;;;15.20
70533;BMP180;58088;51.186;17.130;2022-10-19T00:26:27;101110.40;;;15.10
70533;BMP180;58088;51.186;17.130;2022-10-19T00:28:54;101118.20;;;15.10
70533;BMP180;58088;51.186;17.130;2022-10-19T00:31:21;101118.00;;;15.00
70533;BMP180;58088;51.186;17.130;2022-10-19T00:33:47;101116.40;;;14.96
70533;BMP180;58088;51.186;17.130;2022-10-19T00:36:29;101115.00;;;14.90
70533;BMP180;58088;51.186;17.130;2022-10-19T00:38:57;101107.60;;;14.90
70533;BMP180;58088;51.186;17.130;2022-10-19T00:41:29;101103.00;;;14.80
70533;BMP180;58088;51.186;17.130;2022-10-19T00:46:43;101104.00;;;14.60
70533;BMP180;58088;51.186;17.130;2022-10-19T00:49:16;101098.00;;;14.58
70533;BMP180;58088;51.186;17.130;2022-10-19T00:51:48;101099.60;;;14.50
70533;BMP180;58088;51.186;17.130;2022-10-19T00:54:16;101100.40;;;14.50
70533;BMP180;58088;51.186;17.130;2022-10-19T00:56:45;101087.40;;;14.40
70533;BMP180;58088;51.186;17.130;2022-10-19T00:59:15;101094.80;;;14.34
70533;BMP180;58088;51.186;17.130;2022-10-19T01:01:45;101107.20;;;14.30
70533;BMP180;58088;51.186;17.130;2022-10-19T01:04:12;101102.60;;;14.30
70533;BMP180;58088;51.186;17.130;2022-10-19T01:06:40;101108.40;;;14.20
70533;BMP180;58088;51.186;17.130;2022-10-19T01:09:07;101098.20;;;14.20
70533;BMP180;58088;51.186;17.130;2022-10-19T01:11:37;101107.80;;;14.20
70533;BMP180;58088;51.186;17.130;2022-10-19T01:17:52;101095.20;;;14.10
70533;BMP180;58088;51.186;17.130;2022-10-19T01:26:53;101087.20;;;14.04
70533;BMP180;58088;51.186;17.130;2022-10-19T01:35:11;101076.80;;;13.90
70533;BMP180;58088;51.186;17.130;2022-10-19T01:37:49;101078.00;;;13.90
70533;BMP180;58088;51.186;17.130;2022-10-19T01:43:41;101086.80;;;13.90
70533;BMP180;58088;51.186;17.130;2022-10-19T01:46:39;101083.00;;;13.90
70533;BMP180;58088;51.186;17.130;2022-10-19T01:49:18;101092.80;;;14.00
70533;BMP180;58088;51.186;17.130;2022-10-19T01:51:56;101092.40;;;14.00
70533;BMP180;58088;51.186;17.130;2022-10-19T01:54:27;101096.00;;;14.00
70533;BMP180;58088;51.186;17.130;2022-10-19T01:57:00;101100.00;;;14.00
70533;BMP180;58088;51.186;17.130;2022-10-19T01:59:31;101098.40;;;14.10
70533;BMP180;58088;51.186;17.130;2022-10-19T02:02:09;101088.60;;;14.10
70533;BMP180;58088;51.186;17.130;2022-10-19T02:04:56;101083.20;;;14.10
70533;BMP180;58088;51.186;17.130;2022-10-19T02:07:24;101076.80;;;14.10
70533;BMP180;58088;51.186;17.130;2022-10-19T02:09:50;101076.80;;;14.10
70533;BMP180;58088;51.186;17.130;2022-10-19T02:12:19;101080.60;;;14.10
70533;BMP180;58088;51.186;17.130;2022-10-19T02:14:50;101083.80;;;14.10
70533;BMP180;58088;51.186;17.130;2022-10-19T02:17:28;101077.80;;;14.10
70533;BMP180;58088;51.186;17.130;2022-10-19T02:19:56;101075.80;;;14.10
70533;BMP180;58088;51.186;17.130;2022-10-19T02:22:24;101071.40;;;14.10
70533;BMP180;58088;51.186;17.130;2022-10-19T02:24:50;101070.00;;;14.10
70533;BMP180;58088;51.186;17.130;2022-10-19T02:27:16;101075.00;;;14.06
70533;BMP180;58088;51.186;17.130;2022-10-19T02:29:43;101063.60;;;14.10
70533;BMP180;58088;51.186;17.130;2022-10-19T02:32:11;101073.00;;;14.10
70533;BMP180;58088;51.186;17.130;2022-10-19T02:34:38;101076.00;;;14.10
70533;BMP180;58088;51.186;17.130;2022-10-19T02:37:05;101074.60;;;14.10
70533;BMP180;58088;51.186;17.130;2022-10-19T02:39:32;101067.60;;;14.10
70533;BMP180;58088;51.186;17.130;2022-10-19T02:42:57;101075.00;;;14.10
70533;BMP180;58088;51.186;17.130;2022-10-19T02:45:29;101073.20;;;14.10
70533;BMP180;58088;51.186;17.130;2022-10-19T02:48:18;101066.00;;;14.10
70533;BMP180;58088;51.186;17.130;2022-10-19T02:50:46;101070.80;;;14.10
70533;BMP180;58088;51.186;17.130;2022-10-19T02:53:14;101071.40;;;14.10
70533;BMP180;58088;51.186;17.130;2022-10-19T02:55:41;101073.60;;;14.10
70533;BMP180;58088;51.186;17.130;2022-10-19T02:58:08;101067.20;;;14.10
70533;BMP180;58088;51.186;17.130;2022-10-19T03:00:34;101070.00;;;14.10
70533;BMP180;58088;51.186;17.130;2022-10-19T03:03:01;101075.00;;;14.00
70533;BMP180;58088;51.186;17.130;2022-10-19T03:05:28;101059.20;;;14.00
70533;BMP180;58088;51.186;17.130;2022-10-19T03:07:55;101060.80;;;14.00
70533;BMP180;58088;51.186;17.130;2022-10-19T03:10:21;101065.80;;;14.00
70533;BMP180;58088;51.186;17.130;2022-10-19T03:12:47;101067.20;;;13.98
70533;BMP180;58088;51.186;17.130;2022-10-19T03:15:16;101062.60;;;13.92
70533;BMP180;58088;51.186;17.130;2022-10-19T03:17:43;101058.20;;;13.90
70533;BMP180;58088;51.186;17.130;2022-10-19T03:20:10;101063.00;;;13.90
70533;BMP180;58088;51.186;17.130;2022-10-19T03:22:36;101058.00;;;13.80
70533;BMP180;58088;51.186;17.130;2022-10-19T03:25:03;101059.00;;;13.80
70533;BMP180;58088;51.186;17.130;2022-10-19T03:27:30;101054.00;;;13.80
70533;BMP180;58088;51.186;17.130;2022-10-19T03:29:56;101057.80;;;13.76
70533;BMP180;58088;51.186;17.130;2022-10-19T03:32:22;101062.20;;;13.70
70533;BMP180;58088;51.186;17.130;2022-10-19T03:34:48;101055.20;;;13.70
70533;BMP180;58088;51.186;17.130;2022-10-19T03:37:14;101053.40;;;13.70
70533;BMP180;58088;51.186;17.130;2022-10-19T03:39:40;101051.80;;;13.70
70533;BMP180;58088;51.186;17.130;2022-10-19T03:42:07;101052.60;;;13.62
70533;BMP180;58088;51.186;17.130;2022-10-19T03:44:33;101052.00;;;13.60
70533;BMP180;58088;51.186;17.130;2022-10-19T03:46:59;101052.40;;;13.60
70533;BMP180;58088;51.186;17.130;2022-10-19T03:49:25;101049.40;;;13.50
70533;BMP180;58088;51.186;17.130;2022-10-19T03:51:52;101059.20;;;13.52
70533;BMP180;58088;51.186;17.130;2022-10-19T03:54:18;101046.60;;;13.50
70533;BMP180;58088;51.186;17.130;2022-10-19T03:56:45;101053.00;;;13.50
70533;BMP180;58088;51.186;17.130;2022-10-19T03:59:13;101049.80;;;13.50
70533;BMP180;58088;51.186;17.130;2022-10-19T04:01:43;101044.00;;;13.50
70533;BMP180;58088;51.186;17.130;2022-10-19T04:04:16;101047.80;;;13.50
70533;BMP180;58088;51.186;17.130;2022-10-19T04:06:46;101043.20;;;13.50
70533;BMP180;58088;51.186;17.130;2022-10-19T04:09:17;101042.20;;;13.50
70533;BMP180;58088;51.186;17.130;2022-10-19T04:11:43;101045.40;;;13.50
70533;BMP180;58088;51.186;17.130;2022-10-19T04:14:12;101045.20;;;13.40
70533;BMP180;58088;51.186;17.130;2022-10-19T04:16:39;101041.40;;;13.40
70533;BMP180;58088;51.186;17.130;2022-10-19T04:19:06;101051.00;;;13.40
70533;BMP180;58088;51.186;17.130;2022-10-19T04:21:37;101050.40;;;13.40
70533;BMP180;58088;51.186;17.130;2022-10-19T04:24:13;101056.00;;;13.40
70533;BMP180;58088;51.186;17.130;2022-10-19T04:26:46;101053.80;;;13.40
70533;BMP180;58088;51.186;17.130;2022-10-19T04:29:14;101059.00;;;13.40
70533;BMP180;58088;51.186;17.130;2022-10-19T04:31:41;101051.60;;;13.40
70533;BMP180;58088;51.186;17.130;2022-10-19T04:34:07;101056.00;;;13.40
70533;BMP180;58088;51.186;17.130;2022-10-19T04:36:34;101052.00;;;13.40
70533;BMP180;58088;51.186;17.130;2022-10-19T04:39:01;101056.60;;;13.30
70533;BMP180;58088;51.186;17.130;2022-10-19T04:41:27;101055.60;;;13.30
70533;BMP180;58088;51.186;17.130;2022-10-19T04:43:56;101053.00;;;13.30
70533;BMP180;58088;51.186;17.130;2022-10-19T04:46:24;101050.20;;;13.30
70533;BMP180;58088;51.186;17.130;2022-10-19T04:48:51;101051.60;;;13.28
70533;BMP180;58088;51.186;17.130;2022-10-19T04:51:19;101056.60;;;13.20
70533;BMP180;58088;51.186;17.130;2022-10-19T04:53:46;101051.40;;;13.20
70533;BMP180;58088;51.186;17.130;2022-10-19T04:56:26;101058.40;;;13.20
70533;BMP180;58088;51.186;17.130;2022-10-19T04:58:57;101057.20;;;13.20
70533;BMP180;58088;51.186;17.130;2022-10-19T05:01:27;101055.80;;;13.12
70533;BMP180;58088;51.186;17.130;2022-10-19T05:03:56;101050.40;;;13.10
70533;BMP180;58088;51.186;17.130;2022-10-19T05:06:23;101058.40;;;13.10
70533;BMP180;58088;51.186;17.130;2022-10-19T05:08:50;101058.40;;;13.00
70533;BMP180;58088;51.186;17.130;2022-10-19T05:14:03;101059.40;;;13.00
70533;BMP180;58088;51.186;17.130;2022-10-19T05:16:29;101053.40;;;13.00
70533;BMP180;58088;51.186;17.130;2022-10-19T05:18:55;101055.40;;;13.00
70533;BMP180;58088;51.186;17.130;2022-10-19T05:21:26;101044.40;;;13.00
70533;BMP180;58088;51.186;17.130;2022-10-19T05:23:55;101053.00;;;13.00
70533;BMP180;58088;51.186;17.130;2022-10-19T05:26:41;101057.40;;;13.00
70533;BMP180;58088;51.186;17.130;2022-10-19T05:29:11;101064.60;;;13.00
70533;BMP180;58088;51.186;17.130;2022-10-19T05:31:38;101062.40;;;12.94
70533;BMP180;58088;51.186;17.130;2022-10-19T05:34:04;101057.60;;;12.98
70533;BMP180;58088;51.186;17.130;2022-10-19T05:36:37;101065.60;;;13.00
70533;BMP180;58088;51.186;17.130;2022-10-19T05:39:14;101063.20;;;12.92
70533;BMP180;58088;51.186;17.130;2022-10-19T05:41:46;101065.00;;;12.96
70533;BMP180;58088;51.186;17.130;2022-10-19T05:44:19;101067.40;;;12.94
70533;BMP180;58088;51.186;17.130;2022-10-19T05:46:48;101075.40;;;12.96
70533;BMP180;58088;51.186;17.130;2022-10-19T05:49:18;101069.80;;;12.90
70533;BMP180;58088;51.186;17.130;2022-10-19T05:51:45;101074.40;;;13.00
70533;BMP180;58088;51.186;17.130;2022-10-19T05:54:12;101084.60;;;13.00
70533;BMP180;58088;51.186;17.130;2022-10-19T05:56:40;101081.00;;;13.00
70533;BMP180;58088;51.186;17.130;2022-10-19T05:59:10;101085.00;;;12.94
70533;BMP180;58088;51.186;17.130;2022-10-19T06:01:38;101083.60;;;12.90
70533;BMP180;58088;51.186;17.130;2022-10-19T06:04:05;101087.40;;;12.90
70533;BMP180;58088;51.186;17.130;2022-10-19T06:06:32;101091.00;;;12.90
70533;BMP180;58088;51.186;17.130;2022-10-19T06:08:59;101092.20;;;12.90
70533;BMP180;58088;51.186;17.130;2022-10-19T06:11:30;101092.00;;;12.90
70533;BMP180;58088;51.186;17.130;2022-10-19T06:13:58;101100.60;;;12.90
70533;BMP180;58088;51.186;17.130;2022-10-19T06:16:27;101098.80;;;12.90
70533;BMP180;58088;51.186;17.130;2022-10-19T06:18:54;101095.80;;;12.90
70533;BMP180;58088;51.186;17.130;2022-10-19T06:21:25;101101.40;;;12.90
70533;BMP180;58088;51.186;17.130;2022-10-19T06:23:55;101102.80;;;12.90
70533;BMP180;58088;51.186;17.130;2022-10-19T06:26:25;101105.00;;;12.90
70533;BMP180;58088;51.186;17.130;2022-10-19T06:28:56;101104.40;;;12.90
70533;BMP180;58088;51.186;17.130;2022-10-19T06:31:31;101109.80;;;12.90
70533;BMP180;58088;51.186;17.130;2022-10-19T06:34:00;101109.20;;;12.90
70533;BMP180;58088;51.186;17.130;2022-10-19T06:36:33;101113.80;;;12.90
70533;BMP180;58088;51.186;17.130;2022-10-19T06:39:04;101114.60;;;12.90
70533;BMP180;58088;51.186;17.130;2022-10-19T06:41:34;101117.00;;;12.90
70533;BMP180;58088;51.186;17.130;2022-10-19T06:44:26;101116.60;;;12.90
70533;BMP180;58088;51.186;17.130;2022-10-19T06:47:02;101124.00;;;12.90
70533;BMP180;58088;51.186;17.130;2022-10-19T06:49:32;101122.80;;;12.90
70533;BMP180;58088;51.186;17.130;2022-10-19T06:52:04;101116.00;;;12.90
70533;BMP180;58088;51.186;17.130;2022-10-19T06:54:34;101118.60;;;12.90
70533;BMP180;58088;51.186;17.130;2022-10-19T06:57:03;101120.00;;;12.90
70533;BMP180;58088;51.186;17.130;2022-10-19T06:59:33;101120.40;;;12.90
70533;BMP180;58088;51.186;17.130;2022-10-19T07:01:59;101115.80;;;12.90
70533;BMP180;58088;51.186;17.130;2022-10-19T07:04:26;101122.60;;;12.90
70533;BMP180;58088;51.186;17.130;2022-10-19T07:06:52;101118.60;;;12.92
70533;BMP180;58088;51.186;17.130;2022-10-19T07:09:18;101128.20;;;13.00
70533;BMP180;58088;51.186;17.130;2022-10-19T07:11:45;101134.20;;;13.00
70533;BMP180;58088;51.186;17.130;2022-10-19T07:14:11;101132.20;;;13.10
70533;BMP180;58088;51.186;17.130;2022-10-19T07:16:37;101137.20;;;13.10
70533;BMP180;58088;51.186;17.130;2022-10-19T07:19:03;101139.40;;;13.20
70533;BMP180;58088;51.186;17.130;2022-10-19T07:21:30;101141.20;;;13.26
70533;BMP180;58088;51.186;17.130;2022-10-19T07:23:56;101139.60;;;13.40
70533;BMP180;58088;51.186;17.130;2022-10-19T07:26:25;101147.80;;;13.40
70533;BMP180;58088;51.186;17.130;2022-10-19T07:28:56;101146.60;;;13.40
70533;BMP180;58088;51.186;17.130;2022-10-19T07:31:24;101145.20;;;13.48
70533;BMP180;58088;51.186;17.130;2022-10-19T07:33:55;101147.00;;;13.50
70533;BMP180;58088;51.186;17.130;2022-10-19T07:36:23;101153.80;;;13.50
70533;BMP180;58088;51.186;17.130;2022-10-19T07:38:50;101149.40;;;13.60
70533;BMP180;58088;51.186;17.130;2022-10-19T07:41:19;101151.20;;;13.56
70533;BMP180;58088;51.186;17.130;2022-10-19T07:43:47;101152.80;;;13.50
70533;BMP180;58088;51.186;17.130;2022-10-19T07:46:18;101155.00;;;13.56
70533;BMP180;58088;51.186;17.130;2022-10-19T07:48:45;101152.20;;;13.60
70533;BMP180;58088;51.186;17.130;2022-10-19T07:51:14;101149.60;;;13.60
70533;BMP180;58088;51.186;17.130;2022-10-19T07:53:42;101158.60;;;13.60
70533;BMP180;58088;51.186;17.130;2022-10-19T07:56:16;101154.00;;;13.60
70533;BMP180;58088;51.186;17.130;2022-10-19T07:58:42;101150.40;;;13.60
70533;BMP180;58088;51.186;17.130;2022-10-19T08:01:12;101162.00;;;13.60
70533;BMP180;58088;51.186;17.130;2022-10-19T08:03:39;101155.20;;;13.60
70533;BMP180;58088;51.186;17.130;2022-10-19T08:06:10;101157.80;;;13.68
70533;BMP180;58088;51.186;17.130;2022-10-19T08:08:38;101163.40;;;13.70
70533;BMP180;58088;51.186;17.130;2022-10-19T08:13:40;101159.60;;;13.80
70533;BMP180;58088;51.186;17.130;2022-10-19T08:16:28;101157.80;;;13.80
70533;BMP180;58088;51.186;17.130;2022-10-19T08:18:58;101155.40;;;13.88
70533;BMP180;58088;51.186;17.130;2022-10-19T08:21:27;101163.80;;;13.90
70533;BMP180;58088;51.186;17.130;2022-10-19T08:23:53;101166.40;;;13.92
70533;BMP180;58088;51.186;17.130;2022-10-19T08:26:20;101170.80;;;14.00
70533;BMP180;58088;51.186;17.130;2022-10-19T08:28:47;101163.20;;;14.10
70533;BMP180;58088;51.186;17.130;2022-10-19T08:31:17;101160.80;;;14.10
70533;BMP180;58088;51.186;17.130;2022-10-19T08:33:44;101165.20;;;14.00
70533;BMP180;58088;51.186;17.130;2022-10-19T08:36:12;101166.80;;;14.10
70533;BMP180;58088;51.186;17.130;2022-10-19T08:38:40;101165.60;;;14.10
70533;BMP180;58088;51.186;17.130;2022-10-19T08:49:35;101160.60;;;14.50
70533;BMP180;58088;51.186;17.130;2022-10-19T08:52:31;101161.60;;;14.60
70533;BMP180;58088;51.186;17.130;2022-10-19T08:55:20;101165.60;;;14.80
70533;BMP180;58088;51.186;17.130;2022-10-19T08:58:32;101158.60;;;14.80
70533;BMP180;58088;51.186;17.130;2022-10-19T09:01:08;101154.80;;;15.00
70533;BMP180;58088;51.186;17.130;2022-10-19T09:03:54;101157.00;;;15.10
70533;BMP180;58088;51.186;17.130;2022-10-19T09:09:27;101162.00;;;15.30
70533;BMP180;58088;51.186;17.130;2022-10-19T09:12:03;101161.80;;;15.20
70533;BMP180;58088;51.186;17.130;2022-10-19T09:14:37;101159.80;;;15.10
70533;BMP180;58088;51.186;17.130;2022-10-19T09:17:13;101159.00;;;15.38
70533;BMP180;58088;51.186;17.130;2022-10-19T09:19:40;101161.40;;;15.52
70533;BMP180;58088;51.186;17.130;2022-10-19T09:22:15;101171.20;;;15.60
70533;BMP180;58088;51.186;17.130;2022-10-19T09:24:56;101177.80;;;15.50
70533;BMP180;58088;51.186;17.130;2022-10-19T09:27:35;101182.20;;;15.40
70533;BMP180;58088;51.186;17.130;2022-10-19T09:30:15;101176.20;;;15.40
70533;BMP180;58088;51.186;17.130;2022-10-19T09:32:41;101179.80;;;15.40
70533;BMP180;58088;51.186;17.130;2022-10-19T09:35:28;101184.20;;;15.46
70533;BMP180;58088;51.186;17.130;2022-10-19T09:37:56;101182.60;;;15.60
70533;BMP180;58088;51.186;17.130;2022-10-19T09:40:27;101187.20;;;15.70
70533;BMP180;58088;51.186;17.130;2022-10-19T09:42:55;101185.20;;;15.70
70533;BMP180;58088;51.186;17.130;2022-10-19T09:45:37;101186.80;;;15.60
70533;BMP180;58088;51.186;17.130;2022-10-19T09:48:25;101193.40;;;15.50
70533;BMP180;58088;51.186;17.130;2022-10-19T09:51:02;101183.80;;;15.50
70533;BMP180;58088;51.186;17.130;2022-10-19T09:53:35;101190.80;;;15.52
70533;BMP180;58088;51.186;17.130;2022-10-19T09:56:07;101188.60;;;15.50
70533;BMP180;58088;51.186;17.130;2022-10-19T09:59:00;101194.20;;;15.50
70533;BMP180;58088;51.186;17.130;2022-10-19T10:01:37;101192.60;;;15.50
70533;BMP180;58088;51.186;17.130;2022-10-19T10:04:14;101191.20;;;15.50
70533;BMP180;58088;51.186;17.130;2022-10-19T10:06:43;101192.80;;;15.50
70533;BMP180;58088;51.186;17.130;2022-10-19T10:09:25;101202.60;;;15.50
70533;BMP180;58088;51.186;17.130;2022-10-19T10:11:56;101194.40;;;15.50
70533;BMP180;58088;51.186;17.130;2022-10-19T10:14:29;101197.60;;;15.50
70533;BMP180;58088;51.186;17.130;2022-10-19T10:17:06;101196.60;;;15.50
70533;BMP180;58088;51.186;17.130;2022-10-19T10:19:50;101197.60;;;15.60
70533;BMP180;58088;51.186;17.130;2022-10-19T10:22:33;101191.20;;;15.60
70533;BMP180;58088;51.186;17.130;2022-10-19T10:25:01;101193.00;;;15.60
70533;BMP180;58088;51.186;17.130;2022-10-19T10:27:37;101189.40;;;15.70
70533;BMP180;58088;51.186;17.130;2022-10-19T10:30:09;101193.20;;;15.80
70533;BMP180;58088;51.186;17.130;2022-10-19T10:32:39;101195.20;;;15.80
70533;BMP180;58088;51.186;17.130;2022-10-19T10:35:28;101187.60;;;15.80
70533;BMP180;58088;51.186;17.130;2022-10-19T10:38:17;101197.60;;;15.90
70533;BMP180;58088;51.186;17.130;2022-10-19T10:41:00;101188.20;;;15.90
70533;BMP180;58088;51.186;17.130;2022-10-19T10:43:35;101190.20;;;15.90
70533;BMP180;58088;51.186;17.130;2022-10-19T10:46:12;101190.80;;;15.86
70533;BMP180;58088;51.186;17.130;2022-10-19T10:48:54;101192.00;;;15.90
70533;BMP180;58088;51.186;17.130;2022-10-19T10:51:42;101189.20;;;15.90
70533;BMP180;58088;51.186;17.130;2022-10-19T10:54:29;101184.60;;;15.80
70533;BMP180;58088;51.186;17.130;2022-10-19T10:57:13;101187.40;;;15.70
70533;BMP180;58088;51.186;17.130;2022-10-19T11:00:00;101189.40;;;15.50
70533;BMP180;58088;51.186;17.130;2022-10-19T11:07:54;101181.60;;;15.40
70533;BMP180;58088;51.186;17.130;2022-10-19T11:10:29;101183.00;;;15.30
70533;BMP180;58088;51.186;17.130;2022-10-19T11:13:52;101188.20;;;15.20
70533;BMP180;58088;51.186;17.130;2022-10-19T11:28:19;101193.60;;;15.10
70533;BMP180;58088;51.186;17.130;2022-10-19T11:31:18;101190.00;;;15.10
70533;BMP180;58088;51.186;17.130;2022-10-19T11:37:46;101181.00;;;15.20
70533;BMP180;58088;51.186;17.130;2022-10-19T11:40:30;101187.00;;;15.16
70533;BMP180;58088;51.186;17.130;2022-10-19T11:57:15;101185.20;;;15.00
70533;BMP180;58088;51.186;17.130;2022-10-19T12:09:31;101190.00;;;15.20
70533;BMP180;58088;51.186;17.130;2022-10-19T12:12:27;101196.40;;;15.10
70533;BMP180;58088;51.186;17.130;2022-10-19T12:17:40;101192.80;;;15.00
70533;BMP180;58088;51.186;17.130;2022-10-19T12:20:37;101195.20;;;14.90
70533;BMP180;58088;51.186;17.130;2022-10-19T12:23:27;101201.00;;;14.90
70533;BMP180;58088;51.186;17.130;2022-10-19T12:25:59;101203.40;;;14.90
70533;BMP180;58088;51.186;17.130;2022-10-19T12:28:31;101200.40;;;14.96
70533;BMP180;58088;51.186;17.130;2022-10-19T12:31:00;101195.20;;;15.00
70533;BMP180;58088;51.186;17.130;2022-10-19T12:37:11;101194.60;;;15.10
70533;BMP180;58088;51.186;17.130;2022-10-19T12:39:27;101197.80;;;15.20
70533;BMP180;58088;51.186;17.130;2022-10-19T12:42:17;101196.60;;;15.20
70533;BMP180;58088;51.186;17.130;2022-10-19T12:56:23;101197.80;;;15.04
70533;BMP180;58088;51.186;17.130;2022-10-19T12:58:58;101196.80;;;15.08
70533;BMP180;58088;51.186;17.130;2022-10-19T13:09:34;101196.20;;;14.90
70533;BMP180;58088;51.186;17.130;2022-10-19T13:14:55;101212.00;;;14.80
70533;BMP180;58088;51.186;17.130;2022-10-19T13:25:40;101205.40;;;14.66
70533;BMP180;58088;51.186;17.130;2022-10-19T13:39:02;101197.00;;;14.80
70533;BMP180;58088;51.186;17.130;2022-10-19T13:47:07;101199.60;;;14.80
70533;BMP180;58088;51.186;17.130;2022-10-19T13:49:55;101192.00;;;14.82
70533;BMP180;58088;51.186;17.130;2022-10-19T13:56:04;101194.60;;;14.80
70533;BMP180;58088;51.186;17.130;2022-10-19T14:02:14;101196.40;;;14.90
70533;BMP180;58088;51.186;17.130;2022-10-19T14:08:38;101188.40;;;15.00
70533;BMP180;58088;51.186;17.130;2022-10-19T14:10:41;101186.00;;;15.00
70533;BMP180;58088;51.186;17.130;2022-10-19T14:13:13;101186.60;;;15.00
70533;BMP180;58088;51.186;17.130;2022-10-19T14:15:54;101194.40;;;14.96
70533;BMP180;58088;51.186;17.130;2022-10-19T14:18:26;101189.80;;;14.90
70533;BMP180;58088;51.186;17.130;2022-10-19T14:21:07;101183.00;;;14.84
70533;BMP180;58088;51.186;17.130;2022-10-19T14:23:37;101181.00;;;14.90
70533;BMP180;58088;51.186;17.130;2022-10-19T14:26:28;101182.00;;;14.90
70533;BMP180;58088;51.186;17.130;2022-10-19T14:28:58;101183.40;;;14.90
70533;BMP180;58088;51.186;17.130;2022-10-19T14:31:35;101184.40;;;14.90
70533;BMP180;58088;51.186;17.130;2022-10-19T14:34:06;101182.20;;;14.90
70533;BMP180;58088;51.186;17.130;2022-10-19T14:36:43;101188.20;;;14.94
70533;BMP180;58088;51.186;17.130;2022-10-19T14:39:33;101184.20;;;14.90
70533;BMP180;58088;51.186;17.130;2022-10-19T14:42:07;101186.80;;;14.90
70533;BMP180;58088;51.186;17.130;2022-10-19T14:44:42;101192.20;;;14.90
70533;BMP180;58088;51.186;17.130;2022-10-19T14:47:23;101187.60;;;14.90
70533;BMP180;58088;51.186;17.130;2022-10-19T14:49:55;101183.20;;;14.80
70533;BMP180;58088;51.186;17.130;2022-10-19T14:52:33;101178.40;;;14.80
70533;BMP180;58088;51.186;17.130;2022-10-19T14:55:07;101175.40;;;14.74
70533;BMP180;58088;51.186;17.130;2022-10-19T14:57:39;101174.60;;;14.70
70533;BMP180;58088;51.186;17.130;2022-10-19T15:00:17;101179.00;;;14.70
70533;BMP180;58088;51.186;17.130;2022-10-19T15:02:58;101174.00;;;14.70
70533;BMP180;58088;51.186;17.130;2022-10-19T15:05:33;101181.40;;;14.64
70533;BMP180;58088;51.186;17.130;2022-10-19T15:10:56;101183.40;;;14.60
70533;BMP180;58088;51.186;17.130;2022-10-19T15:13:32;101185.60;;;14.54
70533;BMP180;58088;51.186;17.130;2022-10-19T15:16:00;101184.00;;;14.50
70533;BMP180;58088;51.186;17.130;2022-10-19T15:18:42;101183.40;;;14.50
70533;BMP180;58088;51.186;17.130;2022-10-19T15:21:18;101185.60;;;14.48
70533;BMP180;58088;51.186;17.130;2022-10-19T15:23:49;101188.00;;;14.40
70533;BMP180;58088;51.186;17.130;2022-10-19T15:26:26;101186.60;;;14.40
70533;BMP180;58088;51.186;17.130;2022-10-19T15:29:06;101189.80;;;14.38
70533;BMP180;58088;51.186;17.130;2022-10-19T15:31:33;101186.60;;;14.30
70533;BMP180;58088;51.186;17.130;2022-10-19T15:34:01;101192.60;;;14.30
70533;BMP180;58088;51.186;17.130;2022-10-19T15:36:30;101190.80;;;14.20
70533;BMP180;58088;51.186;17.130;2022-10-19T15:38:58;101188.20;;;14.20
70533;BMP180;58088;51.186;17.130;2022-10-19T15:41:43;101190.60;;;14.20
70533;BMP180;58088;51.186;17.130;2022-10-19T15:44:48;101190.40;;;14.40
70533;BMP180;58088;51.186;17.130;2022-10-19T15:52:19;101189.40;;;14.30
70533;BMP180;58088;51.186;17.130;2022-10-19T15:54:52;101190.20;;;14.30
70533;BMP180;58088;51.186;17.130;2022-10-19T15:57:34;101183.00;;;14.30
70533;BMP180;58088;51.186;17.130;2022-10-19T16:00:15;101187.00;;;14.30
70533;BMP180;58088;51.186;17.130;2022-10-19T16:02:42;101189.80;;;14.20
70533;BMP180;58088;51.186;17.130;2022-10-19T16:05:08;101196.60;;;14.20
70533;BMP180;58088;51.186;17.130;2022-10-19T16:07:39;101192.40;;;14.20
70533;BMP180;58088;51.186;17.130;2022-10-19T16:10:10;101188.20;;;14.20
70533;BMP180;58088;51.186;17.130;2022-10-19T16:12:38;101204.20;;;14.20
70533;BMP180;58088;51.186;17.130;2022-10-19T16:15:05;101217.00;;;14.20
70533;BMP180;58088;51.186;17.130;2022-10-19T16:17:32;101222.80;;;14.10
70533;BMP180;58088;51.186;17.130;2022-10-19T16:19:58;101217.40;;;14.10
70533;BMP180;58088;51.186;17.130;2022-10-19T16:22:24;101222.00;;;14.10
70533;BMP180;58088;51.186;17.130;2022-10-19T16:24:50;101228.80;;;14.00
70533;BMP180;58088;51.186;17.130;2022-10-19T16:27:16;101225.20;;;14.00
70533;BMP180;58088;51.186;17.130;2022-10-19T16:30:04;101218.80;;;13.90
70533;BMP180;58088;51.186;17.130;2022-10-19T16:32:30;101226.60;;;13.90
70533;BMP180;58088;51.186;17.130;2022-10-19T16:34:56;101225.40;;;13.90
70533;BMP180;58088;51.186;17.130;2022-10-19T16:37:22;101231.20;;;13.80
70533;BMP180;58088;51.186;17.130;2022-10-19T16:39:48;101226.00;;;13.80
70533;BMP180;58088;51.186;17.130;2022-10-19T16:42:15;101232.60;;;13.78
70533;BMP180;58088;51.186;17.130;2022-10-19T16:44:41;101238.80;;;13.70
70533;BMP180;58088;51.186;17.130;2022-10-19T16:47:07;101240.00;;;13.70
70533;BMP180;58088;51.186;17.130;2022-10-19T16:49:34;101243.20;;;13.70